sensor_id;sensor_type;location;lat;lon;timestamp;P1;durP1;ratioP1;P2;durP2;ratioP2
2868;SDS011;1442;47.448;8.582;2023-05-07T00:00:44;2.92;;;1.55;;
2868;SDS011;1442;47.448;8.582;2023-05-07T00:03:11;2.90;;;1.40;;
2868;SDS011;1442;47.448;8.582;2023-05-07T00:05:38;4.70;;;1.65;;
2868;SDS011;1442;47.448;8.582;2023-05-07T00:08:06;1.83;;;1.38;;
2868;SDS011;1442;47.448;8.582;2023-05-07T00:10:33;2.97;;;1.90;;
2868;SDS011;1442;47.448;8.582;2023-05-07T00:13:00;5.30;;;1.50;;
2868;SDS011;1442;47.448;8.582;2023-05-07T00:15:27;3.95;;;1.40;;
2868;SDS011;1442;47.448;8.582;2023-05-07T00:17:56;4.97;;;1.40;;
2868;SDS011;1442;47.448;8.582;2023-05-07T00:20:24;3.35;;;2.13;;
2868;SDS011;1442;47.448;8.582;2023-05-07T00:22:51;2.38;;;1.50;;
2868;SDS011;1442;47.448;8.582;2023-05-07T00:25:19;6.28;;;1.40;;
2868;SDS011;1442;47.448;8.582;2023-05-07T00:27:46;3.13;;;1.48;;
2868;SDS011;1442;47.448;8.582;2023-05-07T00:30:13;5.68;;;1.73;;
2868;SDS011;1442;47.448;8.582;2023-05-07T00:32:40;2.50;;;1.73;;
2868;SDS011;1442;47.448;8.582;2023-05-07T00:35:11;3.58;;;1.60;;
2868;SDS011;1442;47.448;8.582;2023-05-07T00:37:38;5.95;;;2.03;;
2868;SDS011;1442;47.448;8.582;2023-05-07T00:40:06;5.40;;;1.63;;
2868;SDS011;1442;47.448;8.582;2023-05-07T00:42:33;1.90;;;1.55;;
2868;SDS011;1442;47.448;8.582;2023-05-07T00:45:00;2.17;;;1.45;;
2868;SDS011;1442;47.448;8.582;2023-05-07T00:47:27;1.90;;;1.60;;
2868;SDS011;1442;47.448;8.582;2023-05-07T00:49:55;4.97;;;1.50;;
2868;SDS011;1442;47.448;8.582;2023-05-07T00:52:25;5.57;;;1.85;;
2868;SDS011;1442;47.448;8.582;2023-05-07T00:54:52;4.10;;;1.88;;
2868;SDS011;1442;47.448;8.582;2023-05-07T00:57:20;2.28;;;1.45;;
2868;SDS011;1442;47.448;8.582;2023-05-07T00:59:48;2.95;;;1.70;;
2868;SDS011;1442;47.448;8.582;2023-05-07T01:02:15;3.15;;;1.73;;
2868;SDS011;1442;47.448;8.582;2023-05-07T01:04:43;1.80;;;1.60;;
2868;SDS011;1442;47.448;8.582;2023-05-07T01:07:10;2.45;;;1.92;;
2868;SDS011;1442;47.448;8.582;2023-05-07T01:09:39;2.97;;;1.48;;
2868;SDS011;1442;47.448;8.582;2023-05-07T01:12:06;2.30;;;1.83;;
2868;SDS011;1442;47.448;8.582;2023-05-07T01:14:34;2.53;;;1.52;;
2868;SDS011;1442;47.448;8.582;2023-05-07T01:17:01;3.15;;;1.55;;
2868;SDS011;1442;47.448;8.582;2023-05-07T01:19:28;2.88;;;2.17;;
2868;SDS011;1442;47.448;8.582;2023-05-07T01:21:58;3.83;;;1.70;;
2868;SDS011;1442;47.448;8.582;2023-05-07T01:24:29;4.78;;;1.50;;
2868;SDS011;1442;47.448;8.582;2023-05-07T01:26:56;3.95;;;1.52;;
2868;SDS011;1442;47.448;8.582;2023-05-07T01:29:23;2.30;;;1.38;;
2868;SDS011;1442;47.448;8.582;2023-05-07T01:31:51;2.85;;;1.30;;
2868;SDS011;1442;47.448;8.582;2023-05-07T01:34:18;6.60;;;1.40;;
2868;SDS011;1442;47.448;8.582;2023-05-07T01:36:47;2.38;;;1.90;;
2868;SDS011;1442;47.448;8.582;2023-05-07T01:39:15;2.78;;;1.30;;
2868;SDS011;1442;47.448;8.582;2023-05-07T01:41:44;3.00;;;1.30;;
2868;SDS011;1442;47.448;8.582;2023-05-07T01:44:11;4.47;;;1.88;;
2868;SDS011;1442;47.448;8.582;2023-05-07T01:46:39;2.60;;;1.70;;
2868;SDS011;1442;47.448;8.582;2023-05-07T01:49:06;4.15;;;2.00;;
2868;SDS011;1442;47.448;8.582;2023-05-07T01:51:34;2.08;;;1.40;;
2868;SDS011;1442;47.448;8.582;2023-05-07T01:54:01;5.45;;;1.67;;
2868;SDS011;1442;47.448;8.582;2023-05-07T01:56:28;3.15;;;1.92;;
2868;SDS011;1442;47.448;8.582;2023-05-07T01:58:57;2.58;;;1.70;;
2868;SDS011;1442;47.448;8.582;2023-05-07T02:01:24;2.83;;;1.55;;
2868;SDS011;1442;47.448;8.582;2023-05-07T02:03:51;2.25;;;1.50;;
2868;SDS011;1442;47.448;8.582;2023-05-07T02:06:18;3.30;;;1.50;;
2868;SDS011;1442;47.448;8.582;2023-05-07T02:08:46;3.50;;;1.70;;
2868;SDS011;1442;47.448;8.582;2023-05-07T02:11:13;3.53;;;1.65;;
2868;SDS011;1442;47.448;8.582;2023-05-07T02:13:40;4.78;;;1.48;;
2868;SDS011;1442;47.448;8.582;2023-05-07T02:16:09;1.90;;;1.30;;
2868;SDS011;1442;47.448;8.582;2023-05-07T02:18:39;2.65;;;1.60;;
2868;SDS011;1442;47.448;8.582;2023-05-07T02:21:06;2.50;;;1.60;;
2868;SDS011;1442;47.448;8.582;2023-05-07T02:23:33;4.53;;;1.85;;
2868;SDS011;1442;47.448;8.582;2023-05-07T02:26:00;4.20;;;2.30;;
2868;SDS011;1442;47.448;8.582;2023-05-07T02:28:27;1.88;;;1.60;;
2868;SDS011;1442;47.448;8.582;2023-05-07T02:30:54;2.47;;;1.63;;
2868;SDS011;1442;47.448;8.582;2023-05-07T02:33:24;3.03;;;1.70;;
2868;SDS011;1442;47.448;8.582;2023-05-07T02:35:52;2.42;;;1.48;;
2868;SDS011;1442;47.448;8.582;2023-05-07T02:38:19;3.10;;;1.50;;
2868;SDS011;1442;47.448;8.582;2023-05-07T02:40:46;2.15;;;1.30;;
2868;SDS011;1442;47.448;8.582;2023-05-07T02:43:13;1.95;;;1.20;;
2868;SDS011;1442;47.448;8.582;2023-05-07T02:45:40;2.42;;;1.52;;
2868;SDS011;1442;47.448;8.582;2023-05-07T02:48:08;4.43;;;1.80;;
2868;SDS011;1442;47.448;8.582;2023-05-07T02:50:36;7.10;;;1.40;;
2868;SDS011;1442;47.448;8.582;2023-05-07T02:53:03;1.38;;;1.10;;
2868;SDS011;1442;47.448;8.582;2023-05-07T02:55:30;2.10;;;1.33;;
2868;SDS011;1442;47.448;8.582;2023-05-07T02:57:58;2.00;;;1.33;;
2868;SDS011;1442;47.448;8.582;2023-05-07T03:00:25;1.63;;;1.50;;
2868;SDS011;1442;47.448;8.582;2023-05-07T03:02:52;3.05;;;1.35;;
2868;SDS011;1442;47.448;8.582;2023-05-07T03:05:19;2.25;;;1.63;;
2868;SDS011;1442;47.448;8.582;2023-05-07T03:07:48;1.67;;;1.38;;
2868;SDS011;1442;47.448;8.582;2023-05-07T03:10:15;4.60;;;1.60;;
2868;SDS011;1442;47.448;8.582;2023-05-07T03:12:43;3.45;;;1.30;;
2868;SDS011;1442;47.448;8.582;2023-05-07T03:15:10;5.00;;;1.55;;
2868;SDS011;1442;47.448;8.582;2023-05-07T03:17:38;3.80;;;1.65;;
2868;SDS011;1442;47.448;8.582;2023-05-07T03:20:06;5.10;;;1.80;;
2868;SDS011;1442;47.448;8.582;2023-05-07T03:22:34;2.58;;;1.50;;
2868;SDS011;1442;47.448;8.582;2023-05-07T03:25:03;1.92;;;1.60;;
2868;SDS011;1442;47.448;8.582;2023-05-07T03:27:30;3.33;;;1.60;;
2868;SDS011;1442;47.448;8.582;2023-05-07T03:29:57;4.20;;;1.60;;
2868;SDS011;1442;47.448;8.582;2023-05-07T03:32:24;1.70;;;1.35;;
2868;SDS011;1442;47.448;8.582;2023-05-07T03:34:51;2.40;;;1.60;;
2868;SDS011;1442;47.448;8.582;2023-05-07T03:37:19;2.55;;;1.90;;
2868;SDS011;1442;47.448;8.582;2023-05-07T03:39:46;1.50;;;1.35;;
2868;SDS011;1442;47.448;8.582;2023-05-07T03:42:15;3.42;;;1.48;;
2868;SDS011;1442;47.448;8.582;2023-05-07T03:44:42;4.07;;;1.70;;
2868;SDS011;1442;47.448;8.582;2023-05-07T03:47:09;3.72;;;1.58;;
2868;SDS011;1442;47.448;8.582;2023-05-07T03:49:38;4.35;;;2.08;;
2868;SDS011;1442;47.448;8.582;2023-05-07T03:52:05;2.25;;;1.98;;
2868;SDS011;1442;47.448;8.582;2023-05-07T03:54:32;4.03;;;2.28;;
2868;SDS011;1442;47.448;8.582;2023-05-07T03:57:00;3.63;;;1.75;;
2868;SDS011;1442;47.448;8.582;2023-05-07T03:59:28;3.42;;;1.92;;
2868;SDS011;1442;47.448;8.582;2023-05-07T04:01:55;2.00;;;1.67;;
2868;SDS011;1442;47.448;8.582;2023-05-07T04:04:22;4.47;;;1.83;;
2868;SDS011;1442;47.448;8.582;2023-05-07T04:06:49;3.40;;;1.73;;
2868;SDS011;1442;47.448;8.582;2023-05-07T04:09:17;3.90;;;2.95;;
2868;SDS011;1442;47.448;8.582;2023-05-07T04:11:44;3.72;;;1.90;;
2868;SDS011;1442;47.448;8.582;2023-05-07T04:14:11;9.25;;;1.80;;
2868;SDS011;1442;47.448;8.582;2023-05-07T04:16:39;2.88;;;2.10;;
2868;SDS011;1442;47.448;8.582;2023-05-07T04:19:06;2.25;;;1.80;;
2868;SDS011;1442;47.448;8.582;2023-05-07T04:21:34;2.63;;;2.10;;
2868;SDS011;1442;47.448;8.582;2023-05-07T04:24:02;2.75;;;1.80;;
2868;SDS011;1442;47.448;8.582;2023-05-07T04:26:29;6.22;;;2.85;;
2868;SDS011;1442;47.448;8.582;2023-05-07T04:28:56;8.10;;;1.98;;
2868;SDS011;1442;47.448;8.582;2023-05-07T04:31:24;4.78;;;1.90;;
2868;SDS011;1442;47.448;8.582;2023-05-07T04:33:52;2.60;;;2.03;;
2868;SDS011;1442;47.448;8.582;2023-05-07T04:36:19;4.97;;;2.20;;
2868;SDS011;1442;47.448;8.582;2023-05-07T04:38:47;2.40;;;1.85;;
2868;SDS011;1442;47.448;8.582;2023-05-07T04:41:14;4.05;;;2.30;;
2868;SDS011;1442;47.448;8.582;2023-05-07T04:43:41;5.13;;;2.47;;
2868;SDS011;1442;47.448;8.582;2023-05-07T04:46:09;8.73;;;2.33;;
2868;SDS011;1442;47.448;8.582;2023-05-07T04:48:36;3.10;;;2.22;;
2868;SDS011;1442;47.448;8.582;2023-05-07T04:51:04;5.60;;;2.38;;
2868;SDS011;1442;47.448;8.582;2023-05-07T04:53:31;4.07;;;2.08;;
2868;SDS011;1442;47.448;8.582;2023-05-07T04:55:59;2.92;;;2.20;;
2868;SDS011;1442;47.448;8.582;2023-05-07T04:58:26;5.32;;;2.60;;
2868;SDS011;1442;47.448;8.582;2023-05-07T05:00:56;6.60;;;2.58;;
2868;SDS011;1442;47.448;8.582;2023-05-07T05:03:23;3.08;;;2.40;;
2868;SDS011;1442;47.448;8.582;2023-05-07T05:05:50;3.80;;;2.15;;
2868;SDS011;1442;47.448;8.582;2023-05-07T05:08:19;4.10;;;2.78;;
2868;SDS011;1442;47.448;8.582;2023-05-07T05:10:46;5.40;;;2.25;;
2868;SDS011;1442;47.448;8.582;2023-05-07T05:13:14;3.78;;;2.20;;
2868;SDS011;1442;47.448;8.582;2023-05-07T05:15:42;3.83;;;2.60;;
2868;SDS011;1442;47.448;8.582;2023-05-07T05:18:09;6.65;;;2.63;;
2868;SDS011;1442;47.448;8.582;2023-05-07T05:20:36;3.88;;;2.38;;
2868;SDS011;1442;47.448;8.582;2023-05-07T05:23:03;6.20;;;2.72;;
2868;SDS011;1442;47.448;8.582;2023-05-07T05:25:32;4.45;;;2.65;;
2868;SDS011;1442;47.448;8.582;2023-05-07T05:27:59;4.18;;;2.70;;
2868;SDS011;1442;47.448;8.582;2023-05-07T05:30:26;5.35;;;2.72;;
2868;SDS011;1442;47.448;8.582;2023-05-07T05:32:53;5.30;;;2.22;;
2868;SDS011;1442;47.448;8.582;2023-05-07T05:35:20;5.45;;;2.72;;
2868;SDS011;1442;47.448;8.582;2023-05-07T05:37:47;4.28;;;2.28;;
2868;SDS011;1442;47.448;8.582;2023-05-07T05:40:15;5.43;;;2.67;;
2868;SDS011;1442;47.448;8.582;2023-05-07T05:42:43;6.32;;;2.92;;
2868;SDS011;1442;47.448;8.582;2023-05-07T05:45:10;8.40;;;2.78;;
2868;SDS011;1442;47.448;8.582;2023-05-07T05:47:37;5.00;;;2.35;;
2868;SDS011;1442;47.448;8.582;2023-05-07T05:50:05;8.05;;;3.13;;
2868;SDS011;1442;47.448;8.582;2023-05-07T05:52:33;5.70;;;2.95;;
2868;SDS011;1442;47.448;8.582;2023-05-07T05:55:00;3.35;;;2.60;;
2868;SDS011;1442;47.448;8.582;2023-05-07T05:57:27;5.82;;;3.33;;
2868;SDS011;1442;47.448;8.582;2023-05-07T05:59:55;5.68;;;3.30;;
2868;SDS011;1442;47.448;8.582;2023-05-07T06:02:23;5.40;;;3.38;;
2868;SDS011;1442;47.448;8.582;2023-05-07T06:04:50;4.32;;;3.03;;
2868;SDS011;1442;47.448;8.582;2023-05-07T06:07:17;9.65;;;3.60;;
2868;SDS011;1442;47.448;8.582;2023-05-07T06:09:44;6.68;;;2.90;;
2868;SDS011;1442;47.448;8.582;2023-05-07T06:12:11;5.07;;;2.95;;
2868;SDS011;1442;47.448;8.582;2023-05-07T06:14:38;7.82;;;3.53;;
2868;SDS011;1442;47.448;8.582;2023-05-07T06:17:07;6.25;;;3.60;;
2868;SDS011;1442;47.448;8.582;2023-05-07T06:19:34;7.28;;;3.78;;
2868;SDS011;1442;47.448;8.582;2023-05-07T06:22:01;5.88;;;3.47;;
2868;SDS011;1442;47.448;8.582;2023-05-07T06:24:28;4.75;;;3.25;;
2868;SDS011;1442;47.448;8.582;2023-05-07T06:26:55;6.53;;;3.88;;
2868;SDS011;1442;47.448;8.582;2023-05-07T06:29:23;8.35;;;3.00;;
2868;SDS011;1442;47.448;8.582;2023-05-07T06:31:50;4.78;;;3.53;;
2868;SDS011;1442;47.448;8.582;2023-05-07T06:34:19;4.80;;;3.80;;
2868;SDS011;1442;47.448;8.582;2023-05-07T06:36:46;7.13;;;4.38;;
2868;SDS011;1442;47.448;8.582;2023-05-07T06:39:13;7.85;;;4.13;;
2868;SDS011;1442;47.448;8.582;2023-05-07T06:41:40;5.30;;;3.58;;
2868;SDS011;1442;47.448;8.582;2023-05-07T06:44:07;4.88;;;3.35;;
2868;SDS011;1442;47.448;8.582;2023-05-07T06:46:34;6.22;;;3.60;;
2868;SDS011;1442;47.448;8.582;2023-05-07T06:49:02;5.53;;;3.45;;
2868;SDS011;1442;47.448;8.582;2023-05-07T06:51:30;4.72;;;3.28;;
2868;SDS011;1442;47.448;8.582;2023-05-07T06:53:57;5.82;;;3.22;;
2868;SDS011;1442;47.448;8.582;2023-05-07T06:56:24;4.80;;;3.15;;
2868;SDS011;1442;47.448;8.582;2023-05-07T06:58:51;4.75;;;2.70;;
2868;SDS011;1442;47.448;8.582;2023-05-07T07:01:18;5.30;;;2.83;;
2868;SDS011;1442;47.448;8.582;2023-05-07T07:03:45;4.07;;;2.90;;
2868;SDS011;1442;47.448;8.582;2023-05-07T07:06:13;5.90;;;2.80;;
2868;SDS011;1442;47.448;8.582;2023-05-07T07:08:41;6.28;;;2.95;;
2868;SDS011;1442;47.448;8.582;2023-05-07T07:11:09;6.05;;;2.78;;
2868;SDS011;1442;47.448;8.582;2023-05-07T07:13:36;4.85;;;3.08;;
2868;SDS011;1442;47.448;8.582;2023-05-07T07:16:05;3.60;;;2.47;;
2868;SDS011;1442;47.448;8.582;2023-05-07T07:18:32;3.55;;;3.08;;
2868;SDS011;1442;47.448;8.582;2023-05-07T07:21:00;7.03;;;3.38;;
2868;SDS011;1442;47.448;8.582;2023-05-07T07:23:27;6.53;;;2.83;;
2868;SDS011;1442;47.448;8.582;2023-05-07T07:25:55;6.38;;;2.85;;
2868;SDS011;1442;47.448;8.582;2023-05-07T07:28:22;7.53;;;3.20;;
2868;SDS011;1442;47.448;8.582;2023-05-07T07:30:49;6.75;;;2.90;;
2868;SDS011;1442;47.448;8.582;2023-05-07T07:33:17;4.93;;;2.50;;
2868;SDS011;1442;47.448;8.582;2023-05-07T07:35:44;3.47;;;2.72;;
2868;SDS011;1442;47.448;8.582;2023-05-07T07:38:11;4.20;;;2.28;;
2868;SDS011;1442;47.448;8.582;2023-05-07T07:40:38;5.25;;;2.40;;
2868;SDS011;1442;47.448;8.582;2023-05-07T07:43:07;6.85;;;2.00;;
2868;SDS011;1442;47.448;8.582;2023-05-07T07:45:34;3.95;;;2.70;;
2868;SDS011;1442;47.448;8.582;2023-05-07T07:48:01;3.42;;;2.30;;
2868;SDS011;1442;47.448;8.582;2023-05-07T07:50:28;2.38;;;2.15;;
2868;SDS011;1442;47.448;8.582;2023-05-07T07:52:55;3.05;;;2.00;;
2868;SDS011;1442;47.448;8.582;2023-05-07T07:55:22;2.22;;;1.85;;
2868;SDS011;1442;47.448;8.582;2023-05-07T07:57:50;2.28;;;1.83;;
2868;SDS011;1442;47.448;8.582;2023-05-07T08:00:18;3.47;;;1.90;;
2868;SDS011;1442;47.448;8.582;2023-05-07T08:02:46;8.60;;;2.10;;
2868;SDS011;1442;47.448;8.582;2023-05-07T08:05:13;3.95;;;2.25;;
2868;SDS011;1442;47.448;8.582;2023-05-07T08:07:40;4.88;;;2.20;;
2868;SDS011;1442;47.448;8.582;2023-05-07T08:10:07;6.18;;;1.95;;
2868;SDS011;1442;47.448;8.582;2023-05-07T08:12:35;9.70;;;2.20;;
2868;SDS011;1442;47.448;8.582;2023-05-07T08:15:02;5.43;;;2.00;;
2868;SDS011;1442;47.448;8.582;2023-05-07T08:17:31;4.30;;;2.35;;
2868;SDS011;1442;47.448;8.582;2023-05-07T08:19:58;2.03;;;1.83;;
2868;SDS011;1442;47.448;8.582;2023-05-07T08:22:25;7.32;;;2.38;;
2868;SDS011;1442;47.448;8.582;2023-05-07T08:24:52;2.42;;;2.13;;
2868;SDS011;1442;47.448;8.582;2023-05-07T08:27:19;5.20;;;3.10;;
2868;SDS011;1442;47.448;8.582;2023-05-07T08:29:47;4.72;;;2.80;;
2868;SDS011;1442;47.448;8.582;2023-05-07T08:32:15;5.38;;;2.35;;
2868;SDS011;1442;47.448;8.582;2023-05-07T08:34:43;5.50;;;3.03;;
2868;SDS011;1442;47.448;8.582;2023-05-07T08:37:11;3.33;;;2.38;;
2868;SDS011;1442;47.448;8.582;2023-05-07T08:39:38;5.68;;;2.30;;
2868;SDS011;1442;47.448;8.582;2023-05-07T08:42:05;3.45;;;2.20;;
2868;SDS011;1442;47.448;8.582;2023-05-07T08:44:33;4.20;;;2.10;;
2868;SDS011;1442;47.448;8.582;2023-05-07T08:47:01;4.63;;;2.53;;
2868;SDS011;1442;47.448;8.582;2023-05-07T08:49:28;3.10;;;1.85;;
2868;SDS011;1442;47.448;8.582;2023-05-07T08:51:57;2.67;;;1.73;;
2868;SDS011;1442;47.448;8.582;2023-05-07T08:54:25;5.82;;;2.00;;
2868;SDS011;1442;47.448;8.582;2023-05-07T08:56:52;2.45;;;2.20;;
2868;SDS011;1442;47.448;8.582;2023-05-07T08:59:19;3.10;;;1.85;;
2868;SDS011;1442;47.448;8.582;2023-05-07T09:01:46;5.28;;;1.92;;
2868;SDS011;1442;47.448;8.582;2023-05-07T09:04:14;3.60;;;1.80;;
2868;SDS011;1442;47.448;8.582;2023-05-07T09:06:41;3.20;;;2.08;;
2868;SDS011;1442;47.448;8.582;2023-05-07T09:09:09;4.15;;;2.00;;
2868;SDS011;1442;47.448;8.582;2023-05-07T09:11:40;2.33;;;1.80;;
2868;SDS011;1442;47.448;8.582;2023-05-07T09:14:08;11.82;;;2.42;;
2868;SDS011;1442;47.448;8.582;2023-05-07T09:16:35;3.65;;;2.20;;
2868;SDS011;1442;47.448;8.582;2023-05-07T09:19:02;4.85;;;2.60;;
2868;SDS011;1442;47.448;8.582;2023-05-07T09:21:29;5.40;;;2.88;;
2868;SDS011;1442;47.448;8.582;2023-05-07T09:23:57;3.38;;;2.00;;
2868;SDS011;1442;47.448;8.582;2023-05-07T09:26:25;5.63;;;2.40;;
2868;SDS011;1442;47.448;8.582;2023-05-07T09:28:53;4.03;;;2.03;;
2868;SDS011;1442;47.448;8.582;2023-05-07T09:31:20;3.55;;;2.00;;
2868;SDS011;1442;47.448;8.582;2023-05-07T09:33:50;4.03;;;2.47;;
2868;SDS011;1442;47.448;8.582;2023-05-07T09:36:17;3.55;;;2.33;;
2868;SDS011;1442;47.448;8.582;2023-05-07T09:38:44;4.60;;;2.20;;
2868;SDS011;1442;47.448;8.582;2023-05-07T09:41:12;7.47;;;2.47;;
2868;SDS011;1442;47.448;8.582;2023-05-07T09:43:40;7.88;;;2.85;;
2868;SDS011;1442;47.448;8.582;2023-05-07T09:46:09;3.10;;;2.38;;
2868;SDS011;1442;47.448;8.582;2023-05-07T09:48:38;3.25;;;2.35;;
2868;SDS011;1442;47.448;8.582;2023-05-07T09:51:08;1.85;;;1.75;;
2868;SDS011;1442;47.448;8.582;2023-05-07T09:53:37;5.53;;;2.05;;
2868;SDS011;1442;47.448;8.582;2023-05-07T09:56:05;5.50;;;2.83;;
2868;SDS011;1442;47.448;8.582;2023-05-07T09:58:32;4.03;;;2.47;;
2868;SDS011;1442;47.448;8.582;2023-05-07T10:01:02;3.50;;;2.30;;
2868;SDS011;1442;47.448;8.582;2023-05-07T10:03:29;3.28;;;2.30;;
2868;SDS011;1442;47.448;8.582;2023-05-07T10:05:58;7.70;;;2.20;;
2868;SDS011;1442;47.448;8.582;2023-05-07T10:08:25;4.13;;;2.30;;
2868;SDS011;1442;47.448;8.582;2023-05-07T10:10:52;4.22;;;2.15;;
2868;SDS011;1442;47.448;8.582;2023-05-07T10:13:19;4.53;;;2.58;;
2868;SDS011;1442;47.448;8.582;2023-05-07T10:15:47;3.28;;;2.22;;
2868;SDS011;1442;47.448;8.582;2023-05-07T10:18:15;3.72;;;2.25;;
2868;SDS011;1442;47.448;8.582;2023-05-07T10:20:43;2.65;;;2.03;;
2868;SDS011;1442;47.448;8.582;2023-05-07T10:23:12;3.40;;;2.28;;
2868;SDS011;1442;47.448;8.582;2023-05-07T10:25:40;4.18;;;2.10;;
2868;SDS011;1442;47.448;8.582;2023-05-07T10:28:08;6.43;;;2.40;;
2868;SDS011;1442;47.448;8.582;2023-05-07T10:30:38;3.05;;;2.20;;
2868;SDS011;1442;47.448;8.582;2023-05-07T10:33:08;5.73;;;2.23;;
2868;SDS011;1442;47.448;8.582;2023-05-07T10:35:37;5.63;;;2.40;;
2868;SDS011;1442;47.448;8.582;2023-05-07T10:38:05;7.57;;;2.50;;
2868;SDS011;1442;47.448;8.582;2023-05-07T10:40:33;3.97;;;2.53;;
2868;SDS011;1442;47.448;8.582;2023-05-07T10:43:00;3.75;;;2.15;;
2868;SDS011;1442;47.448;8.582;2023-05-07T10:45:30;2.67;;;2.25;;
2868;SDS011;1442;47.448;8.582;2023-05-07T10:48:07;5.15;;;2.40;;
2868;SDS011;1442;47.448;8.582;2023-05-07T10:50:35;3.20;;;2.30;;
2868;SDS011;1442;47.448;8.582;2023-05-07T10:58:37;7.85;;;2.85;;
2868;SDS011;1442;47.448;8.582;2023-05-07T11:01:04;2.70;;;2.47;;
2868;SDS011;1442;47.448;8.582;2023-05-07T11:03:31;6.32;;;2.08;;
2868;SDS011;1442;47.448;8.582;2023-05-07T11:06:11;7.30;;;2.42;;
2868;SDS011;1442;47.448;8.582;2023-05-07T11:08:52;3.17;;;2.05;;
2868;SDS011;1442;47.448;8.582;2023-05-07T11:11:19;3.25;;;2.45;;
2868;SDS011;1442;47.448;8.582;2023-05-07T11:13:48;5.43;;;2.90;;
2868;SDS011;1442;47.448;8.582;2023-05-07T11:16:18;3.72;;;2.72;;
2868;SDS011;1442;47.448;8.582;2023-05-07T11:18:46;3.45;;;2.53;;
2868;SDS011;1442;47.448;8.582;2023-05-07T11:21:16;5.65;;;2.10;;
2868;SDS011;1442;47.448;8.582;2023-05-07T11:23:58;2.72;;;2.42;;
2868;SDS011;1442;47.448;8.582;2023-05-07T11:26:26;3.50;;;2.50;;
2868;SDS011;1442;47.448;8.582;2023-05-07T11:28:54;5.35;;;2.35;;
2868;SDS011;1442;47.448;8.582;2023-05-07T11:31:22;4.82;;;2.42;;
2868;SDS011;1442;47.448;8.582;2023-05-07T11:33:51;3.58;;;2.38;;
2868;SDS011;1442;47.448;8.582;2023-05-07T11:36:18;2.50;;;2.22;;
2868;SDS011;1442;47.448;8.582;2023-05-07T11:38:46;4.95;;;2.55;;
2868;SDS011;1442;47.448;8.582;2023-05-07T11:41:13;3.22;;;2.22;;
2868;SDS011;1442;47.448;8.582;2023-05-07T11:43:54;2.97;;;2.55;;
2868;SDS011;1442;47.448;8.582;2023-05-07T11:46:21;6.05;;;2.30;;
2868;SDS011;1442;47.448;8.582;2023-05-07T11:48:49;2.88;;;2.60;;
2868;SDS011;1442;47.448;8.582;2023-05-07T11:51:19;3.20;;;2.35;;
2868;SDS011;1442;47.448;8.582;2023-05-07T11:53:47;4.13;;;2.92;;
2868;SDS011;1442;47.448;8.582;2023-05-07T11:56:14;5.57;;;2.30;;
2868;SDS011;1442;47.448;8.582;2023-05-07T11:58:43;7.80;;;2.90;;
2868;SDS011;1442;47.448;8.582;2023-05-07T12:01:12;5.95;;;2.63;;
2868;SDS011;1442;47.448;8.582;2023-05-07T12:03:40;8.27;;;2.95;;
2868;SDS011;1442;47.448;8.582;2023-05-07T12:06:08;5.13;;;2.38;;
2868;SDS011;1442;47.448;8.582;2023-05-07T12:08:36;6.25;;;2.78;;
2868;SDS011;1442;47.448;8.582;2023-05-07T12:11:04;3.05;;;2.28;;
2868;SDS011;1442;47.448;8.582;2023-05-07T12:13:33;4.22;;;2.50;;
2868;SDS011;1442;47.448;8.582;2023-05-07T12:16:00;5.22;;;2.92;;
2868;SDS011;1442;47.448;8.582;2023-05-07T12:18:30;8.27;;;3.60;;
2868;SDS011;1442;47.448;8.582;2023-05-07T12:20:57;4.75;;;2.78;;
2868;SDS011;1442;47.448;8.582;2023-05-07T12:23:25;2.55;;;2.28;;
2868;SDS011;1442;47.448;8.582;2023-05-07T12:25:53;5.30;;;2.42;;
2868;SDS011;1442;47.448;8.582;2023-05-07T12:28:20;4.85;;;2.50;;
2868;SDS011;1442;47.448;8.582;2023-05-07T12:30:47;5.25;;;3.33;;
2868;SDS011;1442;47.448;8.582;2023-05-07T12:33:16;4.03;;;2.42;;
2868;SDS011;1442;47.448;8.582;2023-05-07T12:35:45;4.55;;;2.70;;
2868;SDS011;1442;47.448;8.582;2023-05-07T12:38:15;4.18;;;2.17;;
2868;SDS011;1442;47.448;8.582;2023-05-07T12:40:43;3.35;;;2.92;;
2868;SDS011;1442;47.448;8.582;2023-05-07T12:43:15;7.00;;;2.75;;
2868;SDS011;1442;47.448;8.582;2023-05-07T12:45:42;3.47;;;2.38;;
2868;SDS011;1442;47.448;8.582;2023-05-07T12:48:10;6.95;;;2.50;;
2868;SDS011;1442;47.448;8.582;2023-05-07T12:50:37;4.65;;;2.70;;
2868;SDS011;1442;47.448;8.582;2023-05-07T12:53:06;7.70;;;2.70;;
2868;SDS011;1442;47.448;8.582;2023-05-07T12:55:40;3.25;;;2.60;;
2868;SDS011;1442;47.448;8.582;2023-05-07T12:58:07;4.78;;;2.60;;
2868;SDS011;1442;47.448;8.582;2023-05-07T13:00:35;3.92;;;2.78;;
2868;SDS011;1442;47.448;8.582;2023-05-07T13:03:03;4.63;;;2.45;;
2868;SDS011;1442;47.448;8.582;2023-05-07T13:05:30;3.83;;;2.00;;
2868;SDS011;1442;47.448;8.582;2023-05-07T13:07:57;6.25;;;4.00;;
2868;SDS011;1442;47.448;8.582;2023-05-07T13:10:26;6.03;;;3.30;;
2868;SDS011;1442;47.448;8.582;2023-05-07T13:12:53;10.25;;;2.97;;
2868;SDS011;1442;47.448;8.582;2023-05-07T13:15:21;3.00;;;2.63;;
2868;SDS011;1442;47.448;8.582;2023-05-07T13:17:48;4.90;;;2.70;;
2868;SDS011;1442;47.448;8.582;2023-05-07T13:20:15;8.25;;;2.95;;
2868;SDS011;1442;47.448;8.582;2023-05-07T13:22:42;3.42;;;2.55;;
2868;SDS011;1442;47.448;8.582;2023-05-07T13:25:09;4.95;;;2.65;;
2868;SDS011;1442;47.448;8.582;2023-05-07T13:27:38;4.15;;;2.42;;
2868;SDS011;1442;47.448;8.582;2023-05-07T13:30:05;4.82;;;2.72;;
2868;SDS011;1442;47.448;8.582;2023-05-07T13:32:33;3.10;;;2.80;;
2868;SDS011;1442;47.448;8.582;2023-05-07T13:35:00;3.97;;;2.33;;
2868;SDS011;1442;47.448;8.582;2023-05-07T13:37:28;6.38;;;2.60;;
2868;SDS011;1442;47.448;8.582;2023-05-07T13:39:55;3.35;;;2.42;;
2868;SDS011;1442;47.448;8.582;2023-05-07T13:42:22;6.32;;;2.35;;
2868;SDS011;1442;47.448;8.582;2023-05-07T13:44:51;3.05;;;2.20;;
2868;SDS011;1442;47.448;8.582;2023-05-07T13:47:18;4.97;;;2.72;;
2868;SDS011;1442;47.448;8.582;2023-05-07T13:49:45;5.10;;;2.33;;
2868;SDS011;1442;47.448;8.582;2023-05-07T13:52:14;14.75;;;2.97;;
2868;SDS011;1442;47.448;8.582;2023-05-07T13:54:41;4.72;;;2.30;;
2868;SDS011;1442;47.448;8.582;2023-05-07T13:57:08;3.55;;;2.15;;
2868;SDS011;1442;47.448;8.582;2023-05-07T13:59:36;2.17;;;1.73;;
2868;SDS011;1442;47.448;8.582;2023-05-07T14:02:05;2.25;;;1.92;;
2868;SDS011;1442;47.448;8.582;2023-05-07T14:04:33;2.97;;;1.33;;
2868;SDS011;1442;47.448;8.582;2023-05-07T14:07:00;2.22;;;1.52;;
2868;SDS011;1442;47.448;8.582;2023-05-07T14:09:27;3.22;;;1.88;;
2868;SDS011;1442;47.448;8.582;2023-05-07T14:11:54;3.00;;;1.73;;
2868;SDS011;1442;47.448;8.582;2023-05-07T14:14:21;4.63;;;1.80;;
2868;SDS011;1442;47.448;8.582;2023-05-07T14:16:48;2.17;;;1.38;;
2868;SDS011;1442;47.448;8.582;2023-05-07T14:19:17;1.88;;;1.60;;
2868;SDS011;1442;47.448;8.582;2023-05-07T14:21:44;2.00;;;1.60;;
2868;SDS011;1442;47.448;8.582;2023-05-07T14:24:11;3.83;;;1.60;;
2868;SDS011;1442;47.448;8.582;2023-05-07T14:26:38;2.67;;;1.70;;
2868;SDS011;1442;47.448;8.582;2023-05-07T14:29:05;3.58;;;1.80;;
2868;SDS011;1442;47.448;8.582;2023-05-07T14:31:32;4.43;;;1.65;;
2868;SDS011;1442;47.448;8.582;2023-05-07T14:34:00;3.10;;;1.25;;
2868;SDS011;1442;47.448;8.582;2023-05-07T14:36:28;3.30;;;1.90;;
2868;SDS011;1442;47.448;8.582;2023-05-07T14:38:56;3.35;;;1.50;;
2868;SDS011;1442;47.448;8.582;2023-05-07T14:41:24;3.75;;;1.60;;
2868;SDS011;1442;47.448;8.582;2023-05-07T14:43:52;2.22;;;1.60;;
2868;SDS011;1442;47.448;8.582;2023-05-07T14:46:19;5.07;;;1.45;;
2868;SDS011;1442;47.448;8.582;2023-05-07T14:48:46;2.88;;;1.42;;
2868;SDS011;1442;47.448;8.582;2023-05-07T14:51:13;1.40;;;1.30;;
2868;SDS011;1442;47.448;8.582;2023-05-07T14:53:42;3.05;;;1.48;;
2868;SDS011;1442;47.448;8.582;2023-05-07T14:56:09;2.80;;;1.50;;
2868;SDS011;1442;47.448;8.582;2023-05-07T14:58:36;2.90;;;1.60;;
2868;SDS011;1442;47.448;8.582;2023-05-07T15:01:03;2.42;;;1.50;;
2868;SDS011;1442;47.448;8.582;2023-05-07T15:03:30;2.55;;;1.63;;
2868;SDS011;1442;47.448;8.582;2023-05-07T15:05:58;2.05;;;1.83;;
2868;SDS011;1442;47.448;8.582;2023-05-07T15:08:25;2.10;;;1.48;;
2868;SDS011;1442;47.448;8.582;2023-05-07T15:10:53;2.05;;;1.52;;
2868;SDS011;1442;47.448;8.582;2023-05-07T15:13:21;4.75;;;1.92;;
2868;SDS011;1442;47.448;8.582;2023-05-07T15:15:48;2.70;;;1.42;;
2868;SDS011;1442;47.448;8.582;2023-05-07T15:18:15;2.40;;;1.75;;
2868;SDS011;1442;47.448;8.582;2023-05-07T15:20:42;2.75;;;1.80;;
2868;SDS011;1442;47.448;8.582;2023-05-07T15:23:10;3.03;;;2.22;;